createdAt,value
2023-05-24T10:12:29.183Z,6.50
2023-05-24T10:15:53.125Z,7.00
2023-05-24T10:18:22.403Z,5.20
2023-05-24T10:20:53.091Z,5.80
2023-05-24T10:23:22.668Z,5.00
2023-05-24T10:26:34.162Z,7.00
2023-05-24T10:29:08.776Z,5.40
2023-05-24T10:33:48.659Z,4.80
2023-05-24T10:36:18.887Z,5.60
2023-05-24T10:41:29.195Z,5.10
2023-05-24T10:44:09.303Z,5.40
2023-05-24T10:47:11.006Z,5.70
2023-05-24T10:49:47.959Z,5.40
2023-05-24T10:52:16.138Z,4.70
2023-05-24T10:55:08.846Z,5.40
2023-05-24T10:57:38.600Z,5.40
2023-05-24T11:03:11.139Z,13.40
2023-05-24T11:05:50.525Z,7.40
2023-05-24T11:08:36.117Z,5.50
2023-05-24T11:11:24.485Z,4.70
2023-05-24T11:13:58.054Z,5.60
2023-05-24T11:16:39.464Z,4.20
2023-05-24T11:19:25.338Z,3.30
2023-05-24T11:21:54.023Z,3.80
2023-05-24T11:24:22.652Z,4.40
2023-05-24T11:26:52.873Z,3.90
2023-05-24T11:29:22.915Z,4.50
2023-05-24T11:31:52.844Z,6.30
2023-05-24T11:34:22.002Z,5.00
2023-05-24T11:36:53.508Z,4.70
2023-05-24T11:39:21.800Z,5.50
2023-05-24T11:41:50.301Z,5.80
2023-05-24T11:44:21.934Z,6.20
2023-05-24T11:46:50.032Z,6.10
2023-05-24T11:49:18.845Z,6.60
2023-05-24T11:51:46.947Z,4.40
2023-05-24T11:54:15.044Z,5.40
2023-05-24T11:56:43.055Z,3.70
2023-05-24T11:59:24.905Z,4.90
2023-05-24T12:02:02.060Z,5.50
2023-05-24T12:04:31.441Z,5.00
2023-05-24T12:07:00.070Z,7.30
2023-05-24T12:09:28.823Z,11.20
2023-05-24T12:11:58.821Z,7.10
2023-05-24T12:14:33.372Z,7.60
2023-05-24T12:17:02.239Z,9.90
2023-05-24T12:19:36.893Z,8.20
2023-05-24T12:22:07.717Z,6.30
2023-05-24T12:24:37.736Z,6.70
2023-05-24T12:27:10.224Z,6.50
2023-05-24T12:29:40.905Z,7.50
2023-05-24T12:32:13.620Z,8.60
2023-05-24T12:34:44.224Z,6.10
2023-05-24T12:37:13.807Z,6.50
2023-05-24T12:39:43.908Z,6.70
2023-05-24T12:42:16.303Z,6.80
2023-05-24T12:44:45.400Z,5.20
2023-05-24T12:47:13.599Z,4.70
2023-05-24T12:49:43.603Z,5.50
2023-05-24T12:52:12.760Z,14.60
2023-05-24T12:54:41.262Z,10.10
2023-05-24T12:57:09.557Z,18.80
2023-05-24T12:59:37.641Z,31.40
2023-05-24T13:32:20.730Z,17.00
2023-05-24T13:34:48.996Z,14.00
2023-05-24T13:37:17.484Z,14.50
2023-05-24T13:39:46.089Z,13.50
2023-05-24T13:42:14.937Z,15.50
2023-05-24T13:44:43.470Z,11.60
2023-05-24T13:47:13.417Z,12.40
2023-05-24T13:52:12.487Z,12.90
2023-05-24T13:54:40.617Z,14.10
2023-05-24T13:57:08.797Z,12.40
2023-05-24T13:59:36.801Z,10.60
2023-05-24T14:02:05.165Z,12.60
2023-05-24T14:04:33.404Z,12.60
2023-05-24T14:07:01.642Z,11.50
2023-05-24T14:09:29.996Z,9.10
2023-05-24T14:11:58.223Z,8.50
2023-05-24T14:16:57.525Z,9.20
2023-05-24T14:19:26.245Z,10.50
2023-05-24T14:21:54.602Z,14.70
2023-05-24T14:24:24.075Z,19.10
2023-05-24T14:26:52.441Z,18.10
2023-05-24T14:29:20.822Z,16.10
2023-05-24T14:31:49.921Z,20.00
2023-05-24T14:34:18.394Z,18.20
2023-05-24T14:36:48.413Z,14.10
2023-05-24T14:39:16.897Z,15.70
2023-05-24T14:41:45.917Z,12.60
2023-05-24T14:44:14.059Z,14.00
2023-05-24T14:46:42.281Z,12.60
2023-05-24T14:49:10.557Z,14.70
2023-05-24T14:51:38.888Z,12.80
2023-05-24T14:54:07.489Z,16.40
2023-05-24T14:56:35.803Z,12.00
2023-05-24T14:59:04.125Z,13.00
2023-05-24T15:01:32.680Z,10.40
2023-05-24T15:04:01.954Z,11.70
2023-05-24T15:06:34.831Z,9.70
2023-05-24T15:09:04.098Z,6.80
2023-05-24T15:11:32.228Z,7.30
2023-05-24T15:14:01.066Z,6.80
2023-05-24T15:16:29.588Z,7.00
2023-05-24T15:18:57.945Z,5.30
2023-05-24T15:21:26.196Z,6.20
2023-05-24T15:23:54.477Z,7.00
2023-05-24T15:26:23.062Z,6.80
2023-05-24T15:28:51.741Z,5.50
2023-05-24T15:31:20.323Z,5.70
2023-05-24T15:33:49.018Z,6.50
2023-05-24T15:36:17.523Z,7.30
2023-05-24T15:38:45.675Z,6.30
2023-05-24T15:41:14.048Z,6.30
2023-05-24T15:43:42.228Z,6.10
2023-05-24T15:46:10.380Z,6.00
2023-05-24T15:48:39.394Z,6.60
2023-05-24T15:53:39.216Z,6.40
2023-05-24T15:56:09.369Z,8.50
2023-05-24T15:58:37.372Z,6.50
2023-05-24T16:01:05.618Z,5.90
2023-05-24T16:03:33.968Z,6.50
2023-05-24T16:06:02.193Z,7.60
2023-05-24T16:08:30.823Z,7.70
2023-05-24T16:10:58.886Z,7.90
2023-05-24T16:13:26.976Z,5.90
2023-05-24T16:15:55.346Z,7.30
2023-05-24T16:18:23.664Z,6.20
2023-05-24T16:20:52.031Z,6.90
2023-05-24T16:23:23.124Z,7.60
2023-05-24T16:25:51.671Z,6.70
2023-05-24T16:28:25.021Z,8.10
2023-05-24T16:30:57.477Z,7.30
2023-05-24T16:33:26.184Z,6.70
2023-05-24T16:35:58.147Z,8.50
2023-05-24T16:38:27.523Z,6.80
2023-05-24T16:40:55.614Z,8.00
2023-05-24T16:43:23.850Z,7.10
2023-05-24T16:45:55.487Z,6.60
2023-05-24T16:48:28.786Z,6.20
2023-05-24T16:50:58.613Z,6.40
2023-05-24T16:53:27.977Z,7.20
2023-05-24T16:55:57.466Z,6.40
2023-05-24T16:58:29.709Z,7.10
2023-05-24T17:00:58.854Z,6.80
2023-05-24T17:03:28.893Z,7.30
2023-05-24T17:06:03.419Z,7.20
2023-05-24T17:08:36.175Z,6.40
2023-05-24T17:11:05.802Z,7.20
2023-05-24T17:13:34.558Z,6.70
2023-05-24T17:16:04.228Z,7.50
2023-05-24T17:18:32.892Z,10.30
2023-05-24T17:21:06.009Z,7.30
2023-05-24T17:23:37.537Z,7.80
2023-05-24T17:26:08.368Z,12.10
2023-05-24T17:28:36.713Z,7.60
2023-05-24T17:31:05.015Z,6.40
2023-05-24T17:33:33.226Z,6.50
2023-05-24T17:36:06.328Z,6.20
2023-05-24T17:38:37.569Z,8.50
2023-05-24T17:41:09.288Z,7.80
2023-05-24T17:43:39.374Z,6.30
2023-05-24T17:46:08.355Z,7.80
2023-05-24T17:48:37.778Z,7.50
2023-05-24T17:51:08.313Z,6.80
2023-05-24T17:53:38.205Z,6.40
2023-05-24T17:56:08.038Z,7.50
2023-05-24T17:58:37.415Z,7.50
2023-05-24T18:01:07.508Z,7.00
2023-05-24T18:03:37.835Z,7.30
2023-05-24T18:06:07.530Z,6.90
2023-05-24T18:08:38.579Z,7.40
2023-05-24T18:11:11.608Z,6.60
2023-05-24T18:13:42.015Z,7.10
2023-05-24T18:16:11.666Z,8.60
2023-05-24T18:18:39.759Z,7.20
2023-05-24T18:21:09.758Z,9.60
2023-05-24T18:23:38.284Z,7.30
2023-05-24T18:26:08.489Z,7.70
2023-05-24T18:28:37.976Z,7.00
2023-05-24T18:31:14.859Z,6.90
2023-05-24T18:33:43.434Z,7.80
2023-05-24T18:36:12.867Z,7.20
2023-05-24T18:38:41.611Z,7.90
2023-05-24T18:41:12.241Z,7.20
2023-05-24T18:43:43.149Z,7.90
2023-05-24T18:46:15.251Z,8.80
2023-05-24T18:48:43.844Z,8.10
2023-05-24T18:51:12.292Z,7.90
2023-05-24T18:53:40.809Z,8.80
2023-05-24T18:56:09.162Z,8.80
2023-05-24T18:58:37.130Z,9.10
2023-05-24T19:01:05.456Z,8.50
2023-05-24T19:03:33.835Z,8.60
2023-05-24T19:06:02.224Z,8.90
2023-05-24T19:08:30.546Z,8.20
2023-05-24T19:10:59.240Z,8.30
2023-05-24T19:13:27.660Z,10.50
2023-05-24T19:15:56.602Z,9.90
2023-05-24T19:18:24.769Z,10.60
2023-05-24T19:20:52.849Z,11.40
2023-05-24T19:23:21.548Z,9.30
2023-05-24T19:25:50.565Z,10.40
2023-05-24T19:28:18.777Z,9.10
2023-05-24T19:30:46.784Z,8.60
2023-05-24T19:33:15.176Z,7.60
2023-05-24T19:35:43.616Z,6.40
2023-05-24T19:38:12.515Z,7.90
2023-05-24T19:40:40.937Z,9.10
2023-05-24T19:43:09.282Z,7.80
2023-05-24T19:45:37.350Z,8.10
2023-05-24T19:48:07.127Z,7.40
2023-05-24T19:50:36.373Z,8.90
2023-05-24T19:53:04.659Z,8.70
2023-05-24T19:55:32.934Z,9.00
2023-05-24T19:58:01.097Z,7.20
2023-05-24T20:00:29.298Z,7.70
2023-05-24T20:02:57.719Z,7.00
2023-05-24T20:05:25.988Z,7.00
2023-05-24T20:07:54.047Z,7.40
2023-05-24T20:10:22.373Z,7.80
2023-05-24T20:12:50.445Z,7.10
2023-05-24T20:15:18.741Z,6.30
2023-05-24T20:17:47.246Z,7.80
2023-05-24T20:20:15.610Z,7.80
2023-05-24T20:22:43.758Z,7.30
2023-05-24T20:25:11.748Z,6.80
2023-05-24T20:27:42.456Z,7.20
2023-05-24T20:30:12.098Z,7.80
2023-05-24T20:32:40.369Z,6.30
2023-05-24T20:35:09.264Z,6.10
2023-05-24T20:37:37.863Z,6.10
2023-05-24T20:40:07.594Z,6.90
2023-05-24T20:42:35.719Z,6.50
2023-05-24T20:45:04.213Z,6.10
2023-05-24T20:47:32.430Z,5.90
2023-05-24T20:50:00.639Z,5.90
2023-05-24T20:52:29.526Z,7.20
2023-05-24T20:54:57.820Z,7.10
2023-05-24T20:57:26.173Z,5.80
2023-05-24T20:59:54.783Z,7.60
2023-05-24T21:02:23.086Z,6.50
2023-05-24T21:04:51.211Z,8.30
2023-05-24T21:07:19.484Z,4.90
2023-05-24T21:09:47.892Z,6.10
2023-05-24T21:12:16.354Z,6.20
2023-05-24T21:14:44.881Z,6.30
2023-05-24T21:17:13.168Z,6.20
2023-05-24T21:19:41.615Z,6.60
2023-05-24T21:22:10.075Z,6.20
2023-05-24T21:24:38.283Z,6.90
2023-05-24T21:27:08.269Z,6.00
2023-05-24T21:29:38.193Z,5.30
2023-05-24T21:32:06.781Z,5.90
2023-05-24T21:34:35.872Z,5.80
2023-05-24T21:37:05.186Z,5.80
2023-05-24T21:39:33.351Z,6.30
2023-05-24T21:42:02.296Z,6.10
2023-05-24T21:44:30.504Z,6.20
2023-05-24T21:46:58.975Z,5.80
2023-05-24T21:49:27.866Z,6.40
2023-05-24T21:51:56.041Z,5.20
2023-05-24T21:54:24.146Z,5.60
2023-05-24T21:56:52.206Z,5.50
2023-05-24T21:59:21.524Z,6.70
2023-05-24T22:01:49.791Z,5.10
2023-05-24T22:04:18.025Z,5.90
2023-05-24T22:06:46.515Z,5.00
2023-05-24T22:09:14.749Z,5.70
2023-05-24T22:11:42.760Z,5.10
2023-05-24T22:14:11.143Z,5.00
2023-05-24T22:16:39.621Z,5.30
2023-05-24T22:19:14.950Z,4.80
2023-05-24T22:21:46.105Z,5.20
2023-05-24T22:24:14.123Z,5.70
2023-05-24T22:26:47.111Z,5.90
2023-05-24T22:29:16.088Z,5.00
2023-05-24T22:31:44.299Z,4.50
2023-05-24T22:34:13.157Z,6.00
2023-05-24T22:36:41.247Z,5.60
2023-05-24T22:39:09.390Z,4.90
2023-05-24T22:41:37.477Z,5.20
2023-05-24T22:44:05.777Z,5.50
2023-05-24T22:46:34.172Z,6.70
2023-05-24T22:49:05.934Z,5.80
2023-05-24T22:51:34.978Z,5.10
2023-05-24T22:54:07.419Z,6.00
2023-05-24T22:56:38.704Z,5.40
2023-05-24T22:59:09.354Z,4.50
2023-05-24T23:01:37.824Z,5.60
2023-05-24T23:04:20.671Z,4.90
2023-05-24T23:06:53.380Z,5.10
2023-05-24T23:09:35.183Z,4.80
2023-05-24T23:12:08.092Z,5.30
2023-05-24T23:14:41.798Z,4.90
2023-05-24T23:17:13.612Z,5.40
2023-05-24T23:19:43.320Z,5.40
2023-05-24T23:22:12.981Z,4.70
2023-05-24T23:24:44.631Z,4.60
2023-05-24T23:27:12.783Z,5.00
2023-05-24T23:29:41.381Z,5.00
2023-05-24T23:32:10.366Z,4.20
2023-05-24T23:34:38.439Z,4.50
2023-05-24T23:37:08.250Z,4.60
2023-05-24T23:39:36.625Z,4.80
2023-05-24T23:42:06.981Z,5.40
2023-05-24T23:44:35.044Z,5.20
2023-05-24T23:47:04.089Z,5.00
2023-05-24T23:49:32.440Z,4.90
2023-05-24T23:52:00.776Z,4.60
2023-05-24T23:54:28.757Z,5.30
2023-05-24T23:56:56.727Z,4.20
2023-05-24T23:59:24.786Z,4.70
